sensor_id;sensor_type;location;lat;lon;timestamp;pressure;altitude;pressure_sealevel;temperature;humidity
12203;BME280;6164;42.178;24.622;2023-05-07T00:01:15;99922.38;;;15.50;100.00
12203;BME280;6164;42.178;24.622;2023-05-07T00:03:41;99912.53;;;15.50;100.00
12203;BME280;6164;42.178;24.622;2023-05-07T00:06:08;99924.28;;;15.56;100.00
12203;BME280;6164;42.178;24.622;2023-05-07T00:08:37;99914.00;;;15.53;100.00
12203;BME280;6164;42.178;24.622;2023-05-07T00:11:06;99920.59;;;15.57;100.00
12203;BME280;6164;42.178;24.622;2023-05-07T00:13:32;99916.28;;;15.56;100.00
12203;BME280;6164;42.178;24.622;2023-05-07T00:16:01;99915.00;;;15.52;100.00
12203;BME280;6164;42.178;24.622;2023-05-07T00:18:27;99914.66;;;15.55;100.00
12203;BME280;6164;42.178;24.622;2023-05-07T00:20:54;99920.59;;;15.57;100.00
12203;BME280;6164;42.178;24.622;2023-05-07T00:23:21;99923.03;;;15.58;100.00
12203;BME280;6164;42.178;24.622;2023-05-07T00:25:48;99922.88;;;15.60;100.00
12203;BME280;6164;42.178;24.622;2023-05-07T00:28:16;99900.47;;;15.48;100.00
12203;BME280;6164;42.178;24.622;2023-05-07T00:30:43;99913.22;;;15.59;100.00
12203;BME280;6164;42.178;24.622;2023-05-07T00:33:09;99923.28;;;15.63;100.00
12203;BME280;6164;42.178;24.622;2023-05-07T00:35:36;99918.22;;;15.68;100.00
12203;BME280;6164;42.178;24.622;2023-05-07T00:38:03;99922.34;;;15.71;100.00
12203;BME280;6164;42.178;24.622;2023-05-07T00:40:30;99917.84;;;15.71;100.00
12203;BME280;6164;42.178;24.622;2023-05-07T00:42:56;99911.69;;;15.71;100.00
12203;BME280;6164;42.178;24.622;2023-05-07T00:45:27;99920.69;;;15.70;100.00
12203;BME280;6164;42.178;24.622;2023-05-07T00:47:55;99917.66;;;15.73;100.00
12203;BME280;6164;42.178;24.622;2023-05-07T00:50:22;99924.03;;;15.78;100.00
12203;BME280;6164;42.178;24.622;2023-05-07T00:52:49;99921.38;;;15.78;100.00
12203;BME280;6164;42.178;24.622;2023-05-07T00:55:16;99917.91;;;15.78;100.00
12203;BME280;6164;42.178;24.622;2023-05-07T00:57:43;99923.22;;;15.78;100.00
12203;BME280;6164;42.178;24.622;2023-05-07T01:00:11;99919.06;;;15.69;100.00
12203;BME280;6164;42.178;24.622;2023-05-07T01:02:39;99935.66;;;15.71;100.00
12203;BME280;6164;42.178;24.622;2023-05-07T01:05:09;99933.63;;;15.73;100.00
12203;BME280;6164;42.178;24.622;2023-05-07T01:07:37;99933.03;;;15.77;100.00
12203;BME280;6164;42.178;24.622;2023-05-07T01:10:06;99929.34;;;15.78;100.00
12203;BME280;6164;42.178;24.622;2023-05-07T01:12:34;99928.16;;;15.81;100.00
12203;BME280;6164;42.178;24.622;2023-05-07T01:15:02;99920.81;;;15.83;100.00
12203;BME280;6164;42.178;24.622;2023-05-07T01:17:28;99922.44;;;15.84;100.00
12203;BME280;6164;42.178;24.622;2023-05-07T01:19:57;99926.75;;;15.85;100.00
12203;BME280;6164;42.178;24.622;2023-05-07T01:22:29;99926.13;;;15.83;100.00
12203;BME280;6164;42.178;24.622;2023-05-07T01:24:57;99920.38;;;15.79;100.00
12203;BME280;6164;42.178;24.622;2023-05-07T01:27:24;99922.41;;;15.77;100.00
12203;BME280;6164;42.178;24.622;2023-05-07T01:29:51;99925.66;;;15.73;100.00
12203;BME280;6164;42.178;24.622;2023-05-07T01:32:22;99916.72;;;15.59;100.00
12203;BME280;6164;42.178;24.622;2023-05-07T01:34:52;99926.16;;;15.62;100.00
12203;BME280;6164;42.178;24.622;2023-05-07T01:37:20;99923.03;;;15.58;100.00
12203;BME280;6164;42.178;24.622;2023-05-07T01:39:49;99886.19;;;15.34;100.00
12203;BME280;6164;42.178;24.622;2023-05-07T01:42:16;99928.31;;;15.52;100.00
12203;BME280;6164;42.178;24.622;2023-05-07T01:44:42;99927.97;;;15.19;100.00
12203;BME280;6164;42.178;24.622;2023-05-07T01:47:09;99929.19;;;15.17;100.00
12203;BME280;6164;42.178;24.622;2023-05-07T01:49:36;99933.03;;;15.14;100.00
12203;BME280;6164;42.178;24.622;2023-05-07T01:52:04;99928.63;;;15.21;100.00
12203;BME280;6164;42.178;24.622;2023-05-07T01:54:31;99931.53;;;15.05;100.00
12203;BME280;6164;42.178;24.622;2023-05-07T01:56:59;99930.88;;;14.82;100.00
12203;BME280;6164;42.178;24.622;2023-05-07T01:59:26;99935.00;;;14.70;100.00
12203;BME280;6164;42.178;24.622;2023-05-07T02:01:52;99932.63;;;14.75;100.00
12203;BME280;6164;42.178;24.622;2023-05-07T02:04:19;99928.78;;;14.78;100.00
12203;BME280;6164;42.178;24.622;2023-05-07T02:06:46;99927.88;;;14.71;100.00
12203;BME280;6164;42.178;24.622;2023-05-07T02:09:13;99922.28;;;14.66;100.00
12203;BME280;6164;42.178;24.622;2023-05-07T02:11:41;99921.63;;;14.64;100.00
12203;BME280;6164;42.178;24.622;2023-05-07T02:14:09;99904.53;;;14.51;100.00
12203;BME280;6164;42.178;24.622;2023-05-07T02:16:36;99923.28;;;14.65;100.00
12203;BME280;6164;42.178;24.622;2023-05-07T02:19:03;99917.28;;;14.56;100.00
12203;BME280;6164;42.178;24.622;2023-05-07T02:21:30;99922.84;;;14.61;100.00
12203;BME280;6164;42.178;24.622;2023-05-07T02:23:57;99921.63;;;14.64;100.00
12203;BME280;6164;42.178;24.622;2023-05-07T02:26:23;99918.78;;;14.65;100.00
12203;BME280;6164;42.178;24.622;2023-05-07T02:28:51;99911.31;;;14.54;100.00
12203;BME280;6164;42.178;24.622;2023-05-07T02:31:20;99917.47;;;14.55;100.00
12203;BME280;6164;42.178;24.622;2023-05-07T02:33:47;99909.66;;;14.53;100.00
12203;BME280;6164;42.178;24.622;2023-05-07T02:36:13;99908.19;;;14.50;100.00
12203;BME280;6164;42.178;24.622;2023-05-07T02:38:40;99898.31;;;14.44;100.00
12203;BME280;6164;42.178;24.622;2023-05-07T02:41:07;99909.47;;;14.40;100.00
12203;BME280;6164;42.178;24.622;2023-05-07T02:43:34;99909.41;;;14.33;100.00
12203;BME280;6164;42.178;24.622;2023-05-07T02:46:01;99907.94;;;14.31;100.00
12203;BME280;6164;42.178;24.622;2023-05-07T02:48:30;99898.56;;;14.20;100.00
12203;BME280;6164;42.178;24.622;2023-05-07T02:50:57;99906.06;;;14.17;100.00
12203;BME280;6164;42.178;24.622;2023-05-07T02:53:23;99908.13;;;14.15;100.00
12203;BME280;6164;42.178;24.622;2023-05-07T02:55:57;99881.25;;;13.95;100.00
12203;BME280;6164;42.178;24.622;2023-05-07T02:58:24;99888.88;;;13.98;100.00
12203;BME280;6164;42.178;24.622;2023-05-07T03:00:51;99905.81;;;13.97;100.00
12203;BME280;6164;42.178;24.622;2023-05-07T03:03:20;99896.94;;;13.90;100.00
12203;BME280;6164;42.178;24.622;2023-05-07T03:05:48;99900.31;;;13.84;100.00
12203;BME280;6164;42.178;24.622;2023-05-07T03:08:14;99901.91;;;13.56;100.00
12203;BME280;6164;42.178;24.622;2023-05-07T03:10:41;99915.91;;;13.50;100.00
12203;BME280;6164;42.178;24.622;2023-05-07T03:13:08;99922.38;;;13.48;100.00
12203;BME280;6164;42.178;24.622;2023-05-07T03:15:35;99906.41;;;13.33;100.00
12203;BME280;6164;42.178;24.622;2023-05-07T03:18:01;99921.72;;;13.23;100.00
12203;BME280;6164;42.178;24.622;2023-05-07T03:20:28;99927.16;;;13.07;100.00
12203;BME280;6164;42.178;24.622;2023-05-07T03:22:56;99919.38;;;13.05;100.00
12203;BME280;6164;42.178;24.622;2023-05-07T03:25:23;99927.94;;;12.85;100.00
12203;BME280;6164;42.178;24.622;2023-05-07T03:27:50;99925.78;;;12.80;100.00
12203;BME280;6164;42.178;24.622;2023-05-07T03:30:17;99921.31;;;12.58;100.00
12203;BME280;6164;42.178;24.622;2023-05-07T03:32:43;99924.47;;;12.46;100.00
12203;BME280;6164;42.178;24.622;2023-05-07T03:35:10;99930.50;;;12.32;100.00
12203;BME280;6164;42.178;24.622;2023-05-07T03:37:37;99929.50;;;12.33;100.00
12203;BME280;6164;42.178;24.622;2023-05-07T03:40:07;99929.06;;;12.13;100.00
12203;BME280;6164;42.178;24.622;2023-05-07T03:42:35;99918.50;;;12.05;100.00
12203;BME280;6164;42.178;24.622;2023-05-07T03:45:02;99929.59;;;12.09;100.00
12203;BME280;6164;42.178;24.622;2023-05-07T03:47:29;99934.03;;;12.16;100.00
12203;BME280;6164;42.178;24.622;2023-05-07T03:49:55;99888.13;;;11.85;100.00
12203;BME280;6164;42.178;24.622;2023-05-07T03:52:22;99932.19;;;12.25;100.00
12203;BME280;6164;42.178;24.622;2023-05-07T03:54:51;99931.16;;;12.34;100.00
12203;BME280;6164;42.178;24.622;2023-05-07T03:57:19;99926.31;;;12.45;100.00
12203;BME280;6164;42.178;24.622;2023-05-07T03:59:46;99932.69;;;12.59;100.00
12203;BME280;6164;42.178;24.622;2023-05-07T04:02:13;99931.84;;;12.66;100.00
12203;BME280;6164;42.178;24.622;2023-05-07T04:04:39;99936.94;;;12.76;100.00
12203;BME280;6164;42.178;24.622;2023-05-07T04:07:06;99920.56;;;12.72;100.00
12203;BME280;6164;42.178;24.622;2023-05-07T04:09:33;99946.13;;;12.88;100.00
12203;BME280;6164;42.178;24.622;2023-05-07T04:11:59;99934.72;;;12.87;100.00
12203;BME280;6164;42.178;24.622;2023-05-07T04:14:27;99935.53;;;12.88;100.00
12203;BME280;6164;42.178;24.622;2023-05-07T04:16:55;99937.47;;;13.02;100.00
12203;BME280;6164;42.178;24.622;2023-05-07T04:19:22;99940.59;;;13.05;100.00
12203;BME280;6164;42.178;24.622;2023-05-07T04:21:49;99940.34;;;13.15;100.00
12203;BME280;6164;42.178;24.622;2023-05-07T04:24:15;99934.06;;;13.16;100.00
12203;BME280;6164;42.178;24.622;2023-05-07T04:26:42;99876.28;;;12.81;100.00
12203;BME280;6164;42.178;24.622;2023-05-07T04:29:09;99940.28;;;13.23;100.00
12203;BME280;6164;42.178;24.622;2023-05-07T04:31:38;99931.88;;;13.19;100.00
12203;BME280;6164;42.178;24.622;2023-05-07T04:34:05;99940.47;;;13.21;100.00
12203;BME280;6164;42.178;24.622;2023-05-07T04:36:32;99947.94;;;13.18;100.00
12203;BME280;6164;42.178;24.622;2023-05-07T04:38:59;99942.06;;;13.31;100.00
12203;BME280;6164;42.178;24.622;2023-05-07T04:41:26;99933.47;;;13.29;100.00
12203;BME280;6164;42.178;24.622;2023-05-07T04:43:52;99942.31;;;13.44;100.00
12203;BME280;6164;42.178;24.622;2023-05-07T04:46:19;99946.63;;;13.59;100.00
12203;BME280;6164;42.178;24.622;2023-05-07T04:48:47;99938.28;;;13.70;100.00
12203;BME280;6164;42.178;24.622;2023-05-07T04:51:14;99943.13;;;13.81;100.00
12203;BME280;6164;42.178;24.622;2023-05-07T04:53:41;99931.16;;;13.85;100.00
12203;BME280;6164;42.178;24.622;2023-05-07T04:56:08;99927.41;;;13.94;100.00
12203;BME280;6164;42.178;24.622;2023-05-07T04:58:35;99925.41;;;13.96;100.00
12203;BME280;6164;42.178;24.622;2023-05-07T05:01:02;99930.16;;;14.01;100.00
12203;BME280;6164;42.178;24.622;2023-05-07T05:03:28;99934.28;;;14.03;100.00
12203;BME280;6164;42.178;24.622;2023-05-07T05:05:57;99939.41;;;14.05;100.00
12203;BME280;6164;42.178;24.622;2023-05-07T05:08:24;99931.09;;;14.08;100.00
12203;BME280;6164;42.178;24.622;2023-05-07T05:10:51;99935.09;;;14.18;100.00
12203;BME280;6164;42.178;24.622;2023-05-07T05:13:18;99938.78;;;14.17;100.00
12203;BME280;6164;42.178;24.622;2023-05-07T05:15:45;99939.63;;;14.32;100.00
12203;BME280;6164;42.178;24.622;2023-05-07T05:18:12;99930.91;;;14.38;100.00
12203;BME280;6164;42.178;24.622;2023-05-07T05:20:39;99950.91;;;14.49;100.00
12203;BME280;6164;42.178;24.622;2023-05-07T05:23:07;99934.94;;;14.64;100.00
12203;BME280;6164;42.178;24.622;2023-05-07T05:25:34;99935.09;;;14.77;100.00
12203;BME280;6164;42.178;24.622;2023-05-07T05:28:01;99939.97;;;14.94;100.00
12203;BME280;6164;42.178;24.622;2023-05-07T05:30:27;99940.44;;;14.98;100.00
12203;BME280;6164;42.178;24.622;2023-05-07T05:32:54;99935.25;;;15.11;100.00
12203;BME280;6164;42.178;24.622;2023-05-07T05:35:21;99939.25;;;15.21;100.00
12203;BME280;6164;42.178;24.622;2023-05-07T05:37:48;99938.03;;;15.24;100.00
12203;BME280;6164;42.178;24.622;2023-05-07T05:40:16;99934.25;;;15.33;100.00
12203;BME280;6164;42.178;24.622;2023-05-07T05:42:42;99933.97;;;15.42;100.00
12203;BME280;6164;42.178;24.622;2023-05-07T05:45:09;99915.72;;;15.39;100.00
12203;BME280;6164;42.178;24.622;2023-05-07T05:47:37;99935.16;;;15.61;100.00
12203;BME280;6164;42.178;24.622;2023-05-07T05:50:05;99931.53;;;15.68;100.00
12203;BME280;6164;42.178;24.622;2023-05-07T05:52:32;99931.41;;;15.55;100.00
12203;BME280;6164;42.178;24.622;2023-05-07T05:54:58;99932.75;;;15.66;100.00
12203;BME280;6164;42.178;24.622;2023-05-07T05:57:27;99931.78;;;15.73;100.00
12203;BME280;6164;42.178;24.622;2023-05-07T05:59:53;99934.63;;;15.72;100.00
12203;BME280;6164;42.178;24.622;2023-05-07T06:02:20;99925.31;;;15.82;100.00
12203;BME280;6164;42.178;24.622;2023-05-07T06:04:47;99933.19;;;15.97;100.00
12203;BME280;6164;42.178;24.622;2023-05-07T06:07:14;99928.97;;;16.09;100.00
12203;BME280;6164;42.178;24.622;2023-05-07T06:09:40;99930.84;;;16.15;100.00
12203;BME280;6164;42.178;24.622;2023-05-07T06:12:07;99925.34;;;16.23;100.00
12203;BME280;6164;42.178;24.622;2023-05-07T06:14:35;99930.78;;;16.43;100.00
12203;BME280;6164;42.178;24.622;2023-05-07T06:17:02;99941.75;;;16.54;100.00
12203;BME280;6164;42.178;24.622;2023-05-07T06:19:28;99936.91;;;16.71;100.00
12203;BME280;6164;42.178;24.622;2023-05-07T06:21:55;99937.34;;;16.81;100.00
12203;BME280;6164;42.178;24.622;2023-05-07T06:24:22;99938.22;;;16.94;100.00
12203;BME280;6164;42.178;24.622;2023-05-07T06:26:49;99926.31;;;17.03;100.00
12203;BME280;6164;42.178;24.622;2023-05-07T06:29:16;99940.97;;;17.27;100.00
12203;BME280;6164;42.178;24.622;2023-05-07T06:31:44;99929.09;;;17.36;100.00
12203;BME280;6164;42.178;24.622;2023-05-07T06:34:11;99934.25;;;17.51;100.00
12203;BME280;6164;42.178;24.622;2023-05-07T06:36:39;99927.88;;;17.65;100.00
12203;BME280;6164;42.178;24.622;2023-05-07T06:39:06;99926.66;;;17.80;100.00
12203;BME280;6164;42.178;24.622;2023-05-07T06:41:33;99923.56;;;17.96;98.87
12203;BME280;6164;42.178;24.622;2023-05-07T06:43:59;99930.50;;;18.10;98.02
12203;BME280;6164;42.178;24.622;2023-05-07T06:46:27;99931.34;;;18.11;95.29
12203;BME280;6164;42.178;24.622;2023-05-07T06:48:57;99934.16;;;18.29;95.77
12203;BME280;6164;42.178;24.622;2023-05-07T06:51:24;99927.19;;;18.41;94.05
12203;BME280;6164;42.178;24.622;2023-05-07T06:53:52;99935.56;;;18.58;94.27
12203;BME280;6164;42.178;24.622;2023-05-07T06:56:18;99926.91;;;18.62;91.18
12203;BME280;6164;42.178;24.622;2023-05-07T06:58:46;99927.13;;;18.61;89.24
12203;BME280;6164;42.178;24.622;2023-05-07T07:01:13;99941.50;;;18.66;90.77
12203;BME280;6164;42.178;24.622;2023-05-07T07:03:40;99931.75;;;18.78;91.52
12203;BME280;6164;42.178;24.622;2023-05-07T07:06:08;99934.63;;;18.83;86.52
12203;BME280;6164;42.178;24.622;2023-05-07T07:08:35;99929.69;;;18.80;86.69
12203;BME280;6164;42.178;24.622;2023-05-07T07:11:04;99936.06;;;18.86;86.81
12203;BME280;6164;42.178;24.622;2023-05-07T07:13:30;99929.81;;;18.98;88.01
12203;BME280;6164;42.178;24.622;2023-05-07T07:15:57;99929.34;;;19.08;87.08
12203;BME280;6164;42.178;24.622;2023-05-07T07:18:24;99930.00;;;19.03;85.25
12203;BME280;6164;42.178;24.622;2023-05-07T07:20:50;99938.59;;;19.12;85.13
12203;BME280;6164;42.178;24.622;2023-05-07T07:23:18;99927.25;;;19.16;84.23
12203;BME280;6164;42.178;24.622;2023-05-07T07:25:45;99909.16;;;19.12;84.44
12203;BME280;6164;42.178;24.622;2023-05-07T07:28:12;99935.44;;;19.21;82.55
12203;BME280;6164;42.178;24.622;2023-05-07T07:30:39;99937.09;;;19.22;81.46
12203;BME280;6164;42.178;24.622;2023-05-07T07:33:06;99930.09;;;19.21;82.55
12203;BME280;6164;42.178;24.622;2023-05-07T07:35:32;99936.66;;;19.25;82.41
12203;BME280;6164;42.178;24.622;2023-05-07T07:37:59;99931.66;;;19.42;84.63
12203;BME280;6164;42.178;24.622;2023-05-07T07:40:28;99927.81;;;19.56;85.22
12203;BME280;6164;42.178;24.622;2023-05-07T07:42:55;99933.47;;;19.73;83.47
12203;BME280;6164;42.178;24.622;2023-05-07T07:45:22;99935.00;;;19.87;82.46
12203;BME280;6164;42.178;24.622;2023-05-07T07:47:48;99942.31;;;19.98;80.55
12203;BME280;6164;42.178;24.622;2023-05-07T07:50:15;99936.78;;;19.93;81.03
12203;BME280;6164;42.178;24.622;2023-05-07T07:52:42;99942.63;;;20.08;82.10
12203;BME280;6164;42.178;24.622;2023-05-07T07:55:09;99940.53;;;20.16;80.65
12203;BME280;6164;42.178;24.622;2023-05-07T07:57:37;99933.81;;;20.25;80.28
12203;BME280;6164;42.178;24.622;2023-05-07T08:00:05;99941.50;;;20.40;79.10
12203;BME280;6164;42.178;24.622;2023-05-07T08:02:32;99937.03;;;20.52;79.28
12203;BME280;6164;42.178;24.622;2023-05-07T08:04:59;99939.25;;;20.55;76.72
12203;BME280;6164;42.178;24.622;2023-05-07T08:07:25;99949.00;;;20.67;77.80
12203;BME280;6164;42.178;24.622;2023-05-07T08:09:52;99920.53;;;20.66;76.23
12203;BME280;6164;42.178;24.622;2023-05-07T08:12:19;99942.53;;;20.75;72.71
12203;BME280;6164;42.178;24.622;2023-05-07T08:14:47;99930.09;;;20.80;72.79
12203;BME280;6164;42.178;24.622;2023-05-07T08:17:14;99928.56;;;20.84;74.18
12203;BME280;6164;42.178;24.622;2023-05-07T08:19:41;99919.75;;;20.95;75.07
12203;BME280;6164;42.178;24.622;2023-05-07T08:22:08;99927.31;;;21.05;74.72
12203;BME280;6164;42.178;24.622;2023-05-07T08:24:35;99925.56;;;21.11;74.34
12203;BME280;6164;42.178;24.622;2023-05-07T08:27:03;99931.06;;;21.16;73.01
12203;BME280;6164;42.178;24.622;2023-05-07T08:29:29;99928.75;;;21.19;72.03
12203;BME280;6164;42.178;24.622;2023-05-07T08:31:57;99926.69;;;21.33;71.42
12203;BME280;6164;42.178;24.622;2023-05-07T08:34:24;99921.22;;;21.39;70.36
12203;BME280;6164;42.178;24.622;2023-05-07T08:36:51;99927.19;;;21.41;69.57
12203;BME280;6164;42.178;24.622;2023-05-07T08:39:18;99915.16;;;21.55;70.19
12203;BME280;6164;42.178;24.622;2023-05-07T08:41:45;99921.97;;;21.69;69.89
12203;BME280;6164;42.178;24.622;2023-05-07T08:44:13;99913.50;;;21.84;69.10
12203;BME280;6164;42.178;24.622;2023-05-07T08:46:41;99919.00;;;22.00;66.90
12203;BME280;6164;42.178;24.622;2023-05-07T08:49:10;99914.63;;;22.11;66.02
12203;BME280;6164;42.178;24.622;2023-05-07T08:51:37;99914.75;;;22.16;66.31
12203;BME280;6164;42.178;24.622;2023-05-07T08:54:04;99910.66;;;22.37;65.02
12203;BME280;6164;42.178;24.622;2023-05-07T08:56:32;99912.72;;;22.46;63.73
12203;BME280;6164;42.178;24.622;2023-05-07T08:58:59;99905.72;;;22.57;65.46
12203;BME280;6164;42.178;24.622;2023-05-07T09:01:26;99899.72;;;22.66;64.42
12203;BME280;6164;42.178;24.622;2023-05-07T09:03:53;99904.59;;;22.81;64.79
12203;BME280;6164;42.178;24.622;2023-05-07T09:06:21;99865.56;;;22.67;62.39
12203;BME280;6164;42.178;24.622;2023-05-07T09:08:52;99901.81;;;23.04;62.01
12203;BME280;6164;42.178;24.622;2023-05-07T09:11:21;99905.50;;;23.14;60.14
12203;BME280;6164;42.178;24.622;2023-05-07T09:13:49;99901.59;;;23.22;60.74
12203;BME280;6164;42.178;24.622;2023-05-07T09:16:16;99910.16;;;23.19;59.29
12203;BME280;6164;42.178;24.622;2023-05-07T09:18:43;99905.03;;;23.17;59.75
12203;BME280;6164;42.178;24.622;2023-05-07T09:21:11;99904.34;;;23.38;59.52
12203;BME280;6164;42.178;24.622;2023-05-07T09:23:39;99912.69;;;23.25;56.11
12203;BME280;6164;42.178;24.622;2023-05-07T09:26:06;99912.03;;;23.18;56.33
12203;BME280;6164;42.178;24.622;2023-05-07T09:28:39;99905.66;;;23.24;56.76
12203;BME280;6164;42.178;24.622;2023-05-07T09:31:06;99920.78;;;23.25;54.99
12203;BME280;6164;42.178;24.622;2023-05-07T09:33:33;99909.19;;;23.25;55.42
12203;BME280;6164;42.178;24.622;2023-05-07T09:36:02;99911.03;;;23.24;54.99
12203;BME280;6164;42.178;24.622;2023-05-07T09:38:29;99916.97;;;23.38;53.88
12203;BME280;6164;42.178;24.622;2023-05-07T09:41:05;99907.38;;;23.59;54.36
12203;BME280;6164;42.178;24.622;2023-05-07T09:43:33;99934.59;;;23.74;51.88
12203;BME280;6164;42.178;24.622;2023-05-07T09:46:02;99911.19;;;23.79;52.29
12203;BME280;6164;42.178;24.622;2023-05-07T09:48:29;99898.44;;;23.91;54.13
12203;BME280;6164;42.178;24.622;2023-05-07T09:50:57;99899.47;;;24.02;52.83
12203;BME280;6164;42.178;24.622;2023-05-07T09:53:29;99915.31;;;23.98;51.57
12203;BME280;6164;42.178;24.622;2023-05-07T09:55:57;99895.59;;;24.14;52.34
12203;BME280;6164;42.178;24.622;2023-05-07T09:58:27;99930.06;;;24.12;49.14
12203;BME280;6164;42.178;24.622;2023-05-07T10:00:56;99926.09;;;24.15;49.98
12203;BME280;6164;42.178;24.622;2023-05-07T10:03:25;99934.91;;;24.10;49.13
12203;BME280;6164;42.178;24.622;2023-05-07T10:05:54;99923.94;;;24.17;49.00
12203;BME280;6164;42.178;24.622;2023-05-07T10:08:21;99933.09;;;24.16;48.04
12203;BME280;6164;42.178;24.622;2023-05-07T10:10:49;99914.78;;;24.18;48.54
12203;BME280;6164;42.178;24.622;2023-05-07T10:13:16;99926.03;;;24.31;47.77
12203;BME280;6164;42.178;24.622;2023-05-07T10:15:45;99945.13;;;24.46;46.34
12203;BME280;6164;42.178;24.622;2023-05-07T10:18:12;99929.06;;;24.56;47.23
12203;BME280;6164;42.178;24.622;2023-05-07T10:20:38;99919.09;;;24.57;47.63
12203;BME280;6164;42.178;24.622;2023-05-07T10:23:13;99923.38;;;24.75;47.35
12203;BME280;6164;42.178;24.622;2023-05-07T10:25:40;99936.25;;;24.89;46.35
12203;BME280;6164;42.178;24.622;2023-05-07T10:28:08;99968.22;;;24.97;44.27
12203;BME280;6164;42.178;24.622;2023-05-07T10:30:48;99971.72;;;24.98;44.45
12203;BME280;6164;42.178;24.622;2023-05-07T10:33:24;99952.22;;;24.91;44.75
12203;BME280;6164;42.178;24.622;2023-05-07T10:35:55;99947.47;;;25.03;44.61
12203;BME280;6164;42.178;24.622;2023-05-07T10:38:24;99923.84;;;25.15;45.93
12203;BME280;6164;42.178;24.622;2023-05-07T10:40:51;99946.47;;;25.09;43.53
12203;BME280;6164;42.178;24.622;2023-05-07T10:43:19;99934.50;;;25.26;44.71
12203;BME280;6164;42.178;24.622;2023-05-07T10:46:09;99933.19;;;25.34;45.07
12203;BME280;6164;42.178;24.622;2023-05-07T10:49:07;99947.41;;;25.46;44.32
12203;BME280;6164;42.178;24.622;2023-05-07T10:51:36;99937.78;;;25.55;44.51
12203;BME280;6164;42.178;24.622;2023-05-07T10:54:21;99931.16;;;25.72;44.51
12203;BME280;6164;42.178;24.622;2023-05-07T10:56:49;99932.03;;;25.78;43.88
12203;BME280;6164;42.178;24.622;2023-05-07T10:59:35;99941.03;;;25.93;43.23
12203;BME280;6164;42.178;24.622;2023-05-07T11:02:09;99947.31;;;25.99;43.51
12203;BME280;6164;42.178;24.622;2023-05-07T11:04:36;99957.25;;;25.88;42.39
12203;BME280;6164;42.178;24.622;2023-05-07T11:07:30;99985.00;;;26.06;41.62
12203;BME280;6164;42.178;24.622;2023-05-07T11:10:04;99969.59;;;26.06;41.52
12203;BME280;6164;42.178;24.622;2023-05-07T11:12:53;99973.09;;;26.07;42.02
12203;BME280;6164;42.178;24.622;2023-05-07T11:15:43;99964.47;;;26.10;42.21
12203;BME280;6164;42.178;24.622;2023-05-07T11:18:13;99961.81;;;26.20;42.24
12203;BME280;6164;42.178;24.622;2023-05-07T11:20:54;99968.13;;;26.30;41.83
12203;BME280;6164;42.178;24.622;2023-05-07T11:26:44;100006.03;;;26.72;40.33
12203;BME280;6164;42.178;24.622;2023-05-07T11:29:13;100021.81;;;26.85;40.19
12203;BME280;6164;42.178;24.622;2023-05-07T11:31:40;99996.97;;;27.08;39.98
12203;BME280;6164;42.178;24.622;2023-05-07T11:34:08;100004.97;;;27.35;39.91
12203;BME280;6164;42.178;24.622;2023-05-07T11:36:35;100023.69;;;27.41;38.47
12203;BME280;6164;42.178;24.622;2023-05-07T11:39:02;100043.47;;;27.42;38.54
12203;BME280;6164;42.178;24.622;2023-05-07T11:41:35;100077.59;;;27.28;37.20
12203;BME280;6164;42.178;24.622;2023-05-07T11:44:02;100076.81;;;27.42;37.68
12203;BME280;6164;42.178;24.622;2023-05-07T11:46:29;100088.00;;;27.61;36.84
12203;BME280;6164;42.178;24.622;2023-05-07T11:48:56;100083.94;;;27.68;37.12
12203;BME280;6164;42.178;24.622;2023-05-07T11:51:25;100080.16;;;27.79;36.95
12203;BME280;6164;42.178;24.622;2023-05-07T11:53:52;100085.88;;;27.88;36.95
12203;BME280;6164;42.178;24.622;2023-05-07T11:56:19;100099.16;;;27.79;36.23
12203;BME280;6164;42.178;24.622;2023-05-07T11:58:47;100114.09;;;27.77;35.26
12203;BME280;6164;42.178;24.622;2023-05-07T12:01:15;100101.84;;;27.74;36.50
12203;BME280;6164;42.178;24.622;2023-05-07T12:03:45;100082.09;;;27.84;37.17
12203;BME280;6164;42.178;24.622;2023-05-07T12:06:13;100101.16;;;28.04;36.56
12203;BME280;6164;42.178;24.622;2023-05-07T12:08:42;100117.97;;;28.06;35.89
12203;BME280;6164;42.178;24.622;2023-05-07T12:11:12;100128.22;;;27.84;35.43
12203;BME280;6164;42.178;24.622;2023-05-07T12:13:40;100132.75;;;27.63;35.32
12203;BME280;6164;42.178;24.622;2023-05-07T12:16:07;100130.06;;;27.63;35.78
12203;BME280;6164;42.178;24.622;2023-05-07T12:18:35;100137.94;;;27.70;35.54
12203;BME280;6164;42.178;24.622;2023-05-07T12:21:04;100123.59;;;27.84;35.21
12203;BME280;6164;42.178;24.622;2023-05-07T12:23:31;100128.78;;;27.91;34.93
12203;BME280;6164;42.178;24.622;2023-05-07T12:26:00;100140.41;;;27.81;35.03
12203;BME280;6164;42.178;24.622;2023-05-07T12:28:26;100127.13;;;27.85;35.12
12203;BME280;6164;42.178;24.622;2023-05-07T12:30:53;100124.41;;;27.80;34.61
12203;BME280;6164;42.178;24.622;2023-05-07T12:33:24;100122.25;;;27.87;35.52
12203;BME280;6164;42.178;24.622;2023-05-07T12:35:53;100107.66;;;27.98;35.85
12203;BME280;6164;42.178;24.622;2023-05-07T12:38:20;100104.38;;;28.06;35.26
12203;BME280;6164;42.178;24.622;2023-05-07T12:40:48;100093.28;;;28.12;35.47
12203;BME280;6164;42.178;24.622;2023-05-07T12:43:18;100094.66;;;28.25;36.46
12203;BME280;6164;42.178;24.622;2023-05-07T12:45:46;100090.84;;;28.21;36.08
12203;BME280;6164;42.178;24.622;2023-05-07T12:48:13;100084.88;;;28.49;35.78
12203;BME280;6164;42.178;24.622;2023-05-07T12:50:40;100096.03;;;28.58;35.80
12203;BME280;6164;42.178;24.622;2023-05-07T12:53:08;100098.97;;;28.46;34.76
12203;BME280;6164;42.178;24.622;2023-05-07T12:55:44;100096.28;;;28.46;35.83
12203;BME280;6164;42.178;24.622;2023-05-07T12:58:25;100079.72;;;28.53;36.77
12203;BME280;6164;42.178;24.622;2023-05-07T13:00:52;100062.84;;;28.71;36.72